Current Conditions
Pioggia



Rainfall
0.00 (mm) - 0.00 (in)
Pressure
1002.92 (hPa) - 29.62 (inHG)
Visibility

7.0 (km) - 4.3 (miles)
   Temperature
11  °C
52°F
10  °C
Dewpoint
94  %
 Humidity
   Wind Speed
27  km/h
15  kts
17  mph
7.6  m/s
   Wind Direction
 50°
North East
   Airport Data
LIPZ
Location Venice Marco Polo 26 km (16.16 mi)
Metar :LIPZ 120750Z 05015KT 7000 -RA BKN005 BKN020 11/10 Q1003 RERA NOSIG
Tue 12th November 08:50 am
   Raw Metar Info
Raw METAR is the most common format in the world for the transmission of observational weather data. It is highly standardized through the International Civil Aviation Organization (ICAO), which allows it to be understood throughout most of the world.
   API Info
Data Provided by
https://www.checkwx.com/weather/LIPZ
   © Info
CSS/SVG/PHP scripts were developed by weather34.com for use in the weather34 template © 2015-2019

Guide Info provided by Metar-Wikipedia